sensor_id;sensor_type;location;lat;lon;timestamp;P1;durP1;ratioP1;P2;durP2;ratioP2
65375;SDS011;51976;47.332;9.404;2023-07-28T00:01:29;2.10;;;1.23;;
65375;SDS011;51976;47.332;9.404;2023-07-28T00:03:55;2.22;;;1.00;;
65375;SDS011;51976;47.332;9.404;2023-07-28T00:06:21;2.28;;;1.02;;
65375;SDS011;51976;47.332;9.404;2023-07-28T00:08:46;2.38;;;1.50;;
65375;SDS011;51976;47.332;9.404;2023-07-28T00:11:13;1.88;;;1.17;;
65375;SDS011;51976;47.332;9.404;2023-07-28T00:13:39;2.00;;;1.27;;
65375;SDS011;51976;47.332;9.404;2023-07-28T00:16:05;2.28;;;1.20;;
65375;SDS011;51976;47.332;9.404;2023-07-28T00:18:31;1.80;;;1.20;;
65375;SDS011;51976;47.332;9.404;2023-07-28T00:20:57;1.88;;;1.00;;
65375;SDS011;51976;47.332;9.404;2023-07-28T00:23:22;2.50;;;1.27;;
65375;SDS011;51976;47.332;9.404;2023-07-28T00:25:47;1.98;;;1.10;;
65375;SDS011;51976;47.332;9.404;2023-07-28T00:28:13;2.00;;;1.27;;
65375;SDS011;51976;47.332;9.404;2023-07-28T00:30:39;1.92;;;1.20;;
65375;SDS011;51976;47.332;9.404;2023-07-28T00:33:04;1.48;;;0.90;;
65375;SDS011;51976;47.332;9.404;2023-07-28T00:35:30;1.20;;;0.90;;
65375;SDS011;51976;47.332;9.404;2023-07-28T00:37:55;2.15;;;1.20;;
65375;SDS011;51976;47.332;9.404;2023-07-28T00:40:21;2.85;;;1.30;;
65375;SDS011;51976;47.332;9.404;2023-07-28T00:42:47;2.80;;;1.17;;
65375;SDS011;51976;47.332;9.404;2023-07-28T00:45:13;1.77;;;0.90;;
65375;SDS011;51976;47.332;9.404;2023-07-28T00:47:38;3.10;;;1.35;;
65375;SDS011;51976;47.332;9.404;2023-07-28T00:50:05;1.95;;;1.20;;
65375;SDS011;51976;47.332;9.404;2023-07-28T00:52:31;5.93;;;1.08;;
65375;SDS011;51976;47.332;9.404;2023-07-28T00:54:57;2.83;;;1.20;;
65375;SDS011;51976;47.332;9.404;2023-07-28T00:57:22;2.65;;;1.40;;
65375;SDS011;51976;47.332;9.404;2023-07-28T00:59:48;2.33;;;1.20;;
65375;SDS011;51976;47.332;9.404;2023-07-28T01:02:13;1.50;;;1.00;;
65375;SDS011;51976;47.332;9.404;2023-07-28T01:04:39;2.55;;;1.10;;
65375;SDS011;51976;47.332;9.404;2023-07-28T01:07:09;3.33;;;1.20;;
65375;SDS011;51976;47.332;9.404;2023-07-28T01:09:50;4.18;;;1.33;;
65375;SDS011;51976;47.332;9.404;2023-07-28T01:12:22;2.20;;;1.40;;
65375;SDS011;51976;47.332;9.404;2023-07-28T01:14:52;1.95;;;1.17;;
65375;SDS011;51976;47.332;9.404;2023-07-28T01:17:17;2.53;;;1.10;;
65375;SDS011;51976;47.332;9.404;2023-07-28T01:19:44;1.42;;;0.90;;
65375;SDS011;51976;47.332;9.404;2023-07-28T01:22:16;1.63;;;1.05;;
65375;SDS011;51976;47.332;9.404;2023-07-28T01:25:09;2.42;;;1.00;;
65375;SDS011;51976;47.332;9.404;2023-07-28T01:27:44;1.80;;;1.10;;
65375;SDS011;51976;47.332;9.404;2023-07-28T01:30:10;2.72;;;1.23;;
65375;SDS011;51976;47.332;9.404;2023-07-28T01:32:36;2.28;;;0.90;;
65375;SDS011;51976;47.332;9.404;2023-07-28T01:35:02;2.97;;;1.02;;
65375;SDS011;51976;47.332;9.404;2023-07-28T01:37:28;3.25;;;1.10;;
65375;SDS011;51976;47.332;9.404;2023-07-28T01:39:54;4.50;;;1.30;;
65375;SDS011;51976;47.332;9.404;2023-07-28T01:42:20;1.45;;;0.80;;
65375;SDS011;51976;47.332;9.404;2023-07-28T01:44:45;1.58;;;0.77;;
65375;SDS011;51976;47.332;9.404;2023-07-28T01:47:10;2.20;;;1.00;;
65375;SDS011;51976;47.332;9.404;2023-07-28T01:49:36;1.70;;;1.05;;
65375;SDS011;51976;47.332;9.404;2023-07-28T01:52:01;2.28;;;1.15;;
65375;SDS011;51976;47.332;9.404;2023-07-28T01:54:27;3.95;;;1.23;;
65375;SDS011;51976;47.332;9.404;2023-07-28T01:56:52;2.65;;;1.10;;
65375;SDS011;51976;47.332;9.404;2023-07-28T01:59:18;3.25;;;1.15;;
65375;SDS011;51976;47.332;9.404;2023-07-28T02:01:44;2.80;;;1.30;;
65375;SDS011;51976;47.332;9.404;2023-07-28T02:04:09;2.20;;;1.05;;
65375;SDS011;51976;47.332;9.404;2023-07-28T02:06:35;2.42;;;1.02;;
65375;SDS011;51976;47.332;9.404;2023-07-28T02:09:00;8.25;;;1.15;;
65375;SDS011;51976;47.332;9.404;2023-07-28T02:11:25;2.33;;;1.10;;
65375;SDS011;51976;47.332;9.404;2023-07-28T02:13:51;2.38;;;1.20;;
65375;SDS011;51976;47.332;9.404;2023-07-28T02:16:16;2.47;;;0.98;;
65375;SDS011;51976;47.332;9.404;2023-07-28T02:18:42;2.50;;;0.90;;
65375;SDS011;51976;47.332;9.404;2023-07-28T02:21:10;1.77;;;1.15;;
65375;SDS011;51976;47.332;9.404;2023-07-28T02:23:35;2.95;;;1.27;;
65375;SDS011;51976;47.332;9.404;2023-07-28T02:26:00;3.83;;;1.08;;
65375;SDS011;51976;47.332;9.404;2023-07-28T02:28:26;2.00;;;1.00;;
65375;SDS011;51976;47.332;9.404;2023-07-28T02:30:51;2.42;;;1.00;;
65375;SDS011;51976;47.332;9.404;2023-07-28T02:33:17;2.53;;;1.10;;
65375;SDS011;51976;47.332;9.404;2023-07-28T02:35:42;2.10;;;1.08;;
65375;SDS011;51976;47.332;9.404;2023-07-28T02:38:08;1.80;;;1.00;;
65375;SDS011;51976;47.332;9.404;2023-07-28T02:40:33;1.98;;;1.02;;
65375;SDS011;51976;47.332;9.404;2023-07-28T02:42:59;1.58;;;0.90;;
65375;SDS011;51976;47.332;9.404;2023-07-28T02:45:24;2.65;;;1.05;;
65375;SDS011;51976;47.332;9.404;2023-07-28T02:47:50;2.28;;;1.00;;
65375;SDS011;51976;47.332;9.404;2023-07-28T02:50:15;1.92;;;1.17;;
65375;SDS011;51976;47.332;9.404;2023-07-28T02:52:41;2.28;;;1.30;;
65375;SDS011;51976;47.332;9.404;2023-07-28T02:55:06;3.70;;;1.35;;
65375;SDS011;51976;47.332;9.404;2023-07-28T02:57:32;2.60;;;1.40;;
65375;SDS011;51976;47.332;9.404;2023-07-28T02:59:58;4.93;;;1.20;;
65375;SDS011;51976;47.332;9.404;2023-07-28T03:02:23;1.27;;;0.82;;
65375;SDS011;51976;47.332;9.404;2023-07-28T03:04:49;1.80;;;1.10;;
65375;SDS011;51976;47.332;9.404;2023-07-28T03:07:14;2.92;;;1.10;;
65375;SDS011;51976;47.332;9.404;2023-07-28T03:09:40;1.60;;;0.98;;
65375;SDS011;51976;47.332;9.404;2023-07-28T03:12:06;1.88;;;1.17;;
65375;SDS011;51976;47.332;9.404;2023-07-28T03:14:32;2.05;;;1.17;;
65375;SDS011;51976;47.332;9.404;2023-07-28T03:16:57;1.90;;;0.90;;
65375;SDS011;51976;47.332;9.404;2023-07-28T03:19:22;4.10;;;1.25;;
65375;SDS011;51976;47.332;9.404;2023-07-28T03:21:48;1.88;;;0.90;;
65375;SDS011;51976;47.332;9.404;2023-07-28T03:24:13;1.88;;;1.05;;
65375;SDS011;51976;47.332;9.404;2023-07-28T03:26:39;2.42;;;1.10;;
65375;SDS011;51976;47.332;9.404;2023-07-28T03:29:04;1.77;;;0.95;;
65375;SDS011;51976;47.332;9.404;2023-07-28T03:31:29;2.50;;;1.17;;
65375;SDS011;51976;47.332;9.404;2023-07-28T03:33:55;3.58;;;1.77;;
65375;SDS011;51976;47.332;9.404;2023-07-28T03:36:21;4.50;;;2.15;;
65375;SDS011;51976;47.332;9.404;2023-07-28T03:38:46;1.70;;;1.15;;
65375;SDS011;51976;47.332;9.404;2023-07-28T03:41:12;1.90;;;1.30;;
65375;SDS011;51976;47.332;9.404;2023-07-28T03:43:38;3.85;;;1.20;;
65375;SDS011;51976;47.332;9.404;2023-07-28T03:46:04;4.15;;;1.67;;
65375;SDS011;51976;47.332;9.404;2023-07-28T03:48:29;2.63;;;1.40;;
65375;SDS011;51976;47.332;9.404;2023-07-28T03:50:55;3.17;;;1.75;;
65375;SDS011;51976;47.332;9.404;2023-07-28T03:53:20;2.95;;;1.20;;
65375;SDS011;51976;47.332;9.404;2023-07-28T03:55:46;3.20;;;1.70;;
65375;SDS011;51976;47.332;9.404;2023-07-28T03:58:11;2.90;;;1.48;;
65375;SDS011;51976;47.332;9.404;2023-07-28T04:00:36;2.65;;;1.58;;
65375;SDS011;51976;47.332;9.404;2023-07-28T04:03:02;2.38;;;1.55;;
65375;SDS011;51976;47.332;9.404;2023-07-28T04:05:27;3.22;;;1.38;;
65375;SDS011;51976;47.332;9.404;2023-07-28T04:07:52;3.20;;;1.50;;
65375;SDS011;51976;47.332;9.404;2023-07-28T04:10:18;5.50;;;1.45;;
65375;SDS011;51976;47.332;9.404;2023-07-28T04:12:43;3.03;;;1.30;;
65375;SDS011;51976;47.332;9.404;2023-07-28T04:15:09;2.50;;;1.25;;
65375;SDS011;51976;47.332;9.404;2023-07-28T04:17:34;1.90;;;1.20;;
65375;SDS011;51976;47.332;9.404;2023-07-28T04:20:00;1.85;;;1.30;;
65375;SDS011;51976;47.332;9.404;2023-07-28T04:22:26;2.35;;;1.25;;
65375;SDS011;51976;47.332;9.404;2023-07-28T04:24:53;2.15;;;1.17;;
65375;SDS011;51976;47.332;9.404;2023-07-28T04:27:19;2.10;;;1.02;;
65375;SDS011;51976;47.332;9.404;2023-07-28T04:29:44;2.60;;;1.45;;
65375;SDS011;51976;47.332;9.404;2023-07-28T04:32:10;1.90;;;1.50;;
65375;SDS011;51976;47.332;9.404;2023-07-28T04:34:35;2.95;;;1.20;;
65375;SDS011;51976;47.332;9.404;2023-07-28T04:37:01;2.17;;;1.17;;
65375;SDS011;51976;47.332;9.404;2023-07-28T04:39:26;4.55;;;1.58;;
65375;SDS011;51976;47.332;9.404;2023-07-28T04:41:52;1.70;;;1.10;;
65375;SDS011;51976;47.332;9.404;2023-07-28T04:44:17;1.58;;;1.13;;
65375;SDS011;51976;47.332;9.404;2023-07-28T04:46:44;6.28;;;1.13;;
65375;SDS011;51976;47.332;9.404;2023-07-28T04:49:12;2.30;;;1.30;;
65375;SDS011;51976;47.332;9.404;2023-07-28T04:51:38;1.98;;;1.30;;
65375;SDS011;51976;47.332;9.404;2023-07-28T04:54:03;2.05;;;1.40;;
65375;SDS011;51976;47.332;9.404;2023-07-28T04:56:28;2.92;;;1.65;;
65375;SDS011;51976;47.332;9.404;2023-07-28T04:58:54;3.95;;;2.03;;
65375;SDS011;51976;47.332;9.404;2023-07-28T05:01:19;3.45;;;1.77;;
65375;SDS011;51976;47.332;9.404;2023-07-28T05:03:45;3.65;;;1.55;;
65375;SDS011;51976;47.332;9.404;2023-07-28T05:06:10;2.67;;;1.67;;
65375;SDS011;51976;47.332;9.404;2023-07-28T05:08:35;2.08;;;1.45;;
65375;SDS011;51976;47.332;9.404;2023-07-28T05:11:01;4.85;;;1.80;;
65375;SDS011;51976;47.332;9.404;2023-07-28T05:13:26;6.70;;;1.85;;
65375;SDS011;51976;47.332;9.404;2023-07-28T05:15:52;3.10;;;1.63;;
65375;SDS011;51976;47.332;9.404;2023-07-28T05:18:17;2.42;;;1.42;;
65375;SDS011;51976;47.332;9.404;2023-07-28T05:20:43;2.75;;;1.33;;
65375;SDS011;51976;47.332;9.404;2023-07-28T05:23:08;3.05;;;2.00;;
65375;SDS011;51976;47.332;9.404;2023-07-28T05:25:33;2.58;;;1.55;;
65375;SDS011;51976;47.332;9.404;2023-07-28T05:27:59;2.47;;;1.45;;
65375;SDS011;51976;47.332;9.404;2023-07-28T05:30:24;2.25;;;1.27;;
65375;SDS011;51976;47.332;9.404;2023-07-28T05:32:50;3.15;;;1.20;;
65375;SDS011;51976;47.332;9.404;2023-07-28T05:35:15;2.03;;;1.17;;
65375;SDS011;51976;47.332;9.404;2023-07-28T05:37:41;1.75;;;1.20;;
65375;SDS011;51976;47.332;9.404;2023-07-28T05:40:07;3.40;;;1.55;;
65375;SDS011;51976;47.332;9.404;2023-07-28T05:42:32;3.33;;;1.70;;
65375;SDS011;51976;47.332;9.404;2023-07-28T05:44:58;1.92;;;1.40;;
65375;SDS011;51976;47.332;9.404;2023-07-28T05:47:24;1.67;;;1.13;;
65375;SDS011;51976;47.332;9.404;2023-07-28T05:49:50;5.40;;;1.45;;
65375;SDS011;51976;47.332;9.404;2023-07-28T05:52:18;1.73;;;1.10;;
65375;SDS011;51976;47.332;9.404;2023-07-28T05:54:44;2.47;;;1.20;;
65375;SDS011;51976;47.332;9.404;2023-07-28T05:57:09;2.38;;;1.30;;
65375;SDS011;51976;47.332;9.404;2023-07-28T05:59:34;1.88;;;1.20;;
65375;SDS011;51976;47.332;9.404;2023-07-28T06:02:00;2.40;;;1.10;;
65375;SDS011;51976;47.332;9.404;2023-07-28T06:04:25;3.42;;;1.40;;
65375;SDS011;51976;47.332;9.404;2023-07-28T06:06:51;2.15;;;1.10;;
65375;SDS011;51976;47.332;9.404;2023-07-28T06:09:16;1.88;;;1.25;;
65375;SDS011;51976;47.332;9.404;2023-07-28T06:11:42;3.63;;;1.60;;
65375;SDS011;51976;47.332;9.404;2023-07-28T06:14:07;9.30;;;1.60;;
65375;SDS011;51976;47.332;9.404;2023-07-28T06:16:33;3.33;;;1.20;;
65375;SDS011;51976;47.332;9.404;2023-07-28T06:18:58;5.35;;;1.60;;
65375;SDS011;51976;47.332;9.404;2023-07-28T06:21:23;3.00;;;1.48;;
65375;SDS011;51976;47.332;9.404;2023-07-28T06:23:49;2.28;;;1.35;;
65375;SDS011;51976;47.332;9.404;2023-07-28T06:26:14;6.78;;;1.50;;
65375;SDS011;51976;47.332;9.404;2023-07-28T06:28:40;3.55;;;1.20;;
65375;SDS011;51976;47.332;9.404;2023-07-28T06:31:05;3.00;;;1.30;;
65375;SDS011;51976;47.332;9.404;2023-07-28T06:33:31;3.42;;;1.38;;
65375;SDS011;51976;47.332;9.404;2023-07-28T06:35:57;4.13;;;1.85;;
65375;SDS011;51976;47.332;9.404;2023-07-28T06:38:22;3.60;;;1.10;;
65375;SDS011;51976;47.332;9.404;2023-07-28T06:40:48;3.40;;;1.40;;
65375;SDS011;51976;47.332;9.404;2023-07-28T06:43:13;1.95;;;1.27;;
65375;SDS011;51976;47.332;9.404;2023-07-28T06:45:38;2.42;;;1.35;;
65375;SDS011;51976;47.332;9.404;2023-07-28T06:48:04;2.08;;;1.30;;
65375;SDS011;51976;47.332;9.404;2023-07-28T06:50:29;4.05;;;1.63;;
65375;SDS011;51976;47.332;9.404;2023-07-28T06:52:55;2.65;;;1.70;;
65375;SDS011;51976;47.332;9.404;2023-07-28T06:55:20;3.22;;;1.55;;
65375;SDS011;51976;47.332;9.404;2023-07-28T06:57:47;4.13;;;1.48;;
65375;SDS011;51976;47.332;9.404;2023-07-28T07:00:12;3.83;;;1.40;;
65375;SDS011;51976;47.332;9.404;2023-07-28T07:02:39;2.35;;;1.30;;
65375;SDS011;51976;47.332;9.404;2023-07-28T07:05:05;3.85;;;1.65;;
65375;SDS011;51976;47.332;9.404;2023-07-28T07:07:31;2.90;;;1.40;;
65375;SDS011;51976;47.332;9.404;2023-07-28T07:09:57;6.07;;;1.10;;
65375;SDS011;51976;47.332;9.404;2023-07-28T07:12:22;3.25;;;1.38;;
65375;SDS011;51976;47.332;9.404;2023-07-28T07:14:47;2.05;;;1.40;;
65375;SDS011;51976;47.332;9.404;2023-07-28T07:17:13;3.45;;;1.50;;
65375;SDS011;51976;47.332;9.404;2023-07-28T07:19:38;2.83;;;1.50;;
65375;SDS011;51976;47.332;9.404;2023-07-28T07:22:04;2.42;;;1.13;;
65375;SDS011;51976;47.332;9.404;2023-07-28T07:24:30;2.38;;;1.23;;
65375;SDS011;51976;47.332;9.404;2023-07-28T07:26:56;3.90;;;1.50;;
65375;SDS011;51976;47.332;9.404;2023-07-28T07:29:21;2.58;;;1.50;;
65375;SDS011;51976;47.332;9.404;2023-07-28T07:31:46;3.13;;;1.20;;
65375;SDS011;51976;47.332;9.404;2023-07-28T07:34:12;2.33;;;1.42;;
65375;SDS011;51976;47.332;9.404;2023-07-28T07:36:37;2.65;;;1.30;;
65375;SDS011;51976;47.332;9.404;2023-07-28T07:39:04;2.17;;;1.08;;
65375;SDS011;51976;47.332;9.404;2023-07-28T07:41:30;2.30;;;1.55;;
65375;SDS011;51976;47.332;9.404;2023-07-28T07:43:56;2.20;;;1.27;;
65375;SDS011;51976;47.332;9.404;2023-07-28T07:46:22;4.38;;;1.48;;
65375;SDS011;51976;47.332;9.404;2023-07-28T07:48:48;3.10;;;1.33;;
65375;SDS011;51976;47.332;9.404;2023-07-28T07:51:14;2.25;;;1.17;;
65375;SDS011;51976;47.332;9.404;2023-07-28T07:53:39;5.13;;;1.70;;
65375;SDS011;51976;47.332;9.404;2023-07-28T07:56:05;1.80;;;1.45;;
65375;SDS011;51976;47.332;9.404;2023-07-28T07:58:31;2.13;;;1.17;;
65375;SDS011;51976;47.332;9.404;2023-07-28T08:00:58;2.05;;;1.50;;
65375;SDS011;51976;47.332;9.404;2023-07-28T08:03:23;2.30;;;1.20;;
65375;SDS011;51976;47.332;9.404;2023-07-28T08:05:50;4.28;;;1.27;;
65375;SDS011;51976;47.332;9.404;2023-07-28T08:08:16;1.60;;;1.10;;
65375;SDS011;51976;47.332;9.404;2023-07-28T08:10:42;1.67;;;1.00;;
65375;SDS011;51976;47.332;9.404;2023-07-28T08:13:08;2.47;;;1.88;;
65375;SDS011;51976;47.332;9.404;2023-07-28T08:15:33;2.78;;;1.30;;
65375;SDS011;51976;47.332;9.404;2023-07-28T08:17:59;3.10;;;1.30;;
65375;SDS011;51976;47.332;9.404;2023-07-28T08:20:24;1.88;;;1.25;;
65375;SDS011;51976;47.332;9.404;2023-07-28T08:22:50;2.42;;;1.20;;
65375;SDS011;51976;47.332;9.404;2023-07-28T08:25:15;2.03;;;1.38;;
65375;SDS011;51976;47.332;9.404;2023-07-28T08:27:41;1.85;;;0.95;;
65375;SDS011;51976;47.332;9.404;2023-07-28T08:30:06;1.77;;;1.27;;
65375;SDS011;51976;47.332;9.404;2023-07-28T08:32:32;4.78;;;1.60;;
65375;SDS011;51976;47.332;9.404;2023-07-28T08:34:58;1.70;;;1.23;;
65375;SDS011;51976;47.332;9.404;2023-07-28T08:37:24;2.33;;;1.52;;
65375;SDS011;51976;47.332;9.404;2023-07-28T08:39:49;2.05;;;1.30;;
65375;SDS011;51976;47.332;9.404;2023-07-28T08:42:14;5.75;;;1.70;;
65375;SDS011;51976;47.332;9.404;2023-07-28T08:44:40;2.88;;;1.40;;
65375;SDS011;51976;47.332;9.404;2023-07-28T08:47:06;1.85;;;1.30;;
65375;SDS011;51976;47.332;9.404;2023-07-28T08:49:32;3.47;;;1.40;;
65375;SDS011;51976;47.332;9.404;2023-07-28T08:52:02;1.52;;;1.20;;
65375;SDS011;51976;47.332;9.404;2023-07-28T08:54:28;2.05;;;1.30;;
65375;SDS011;51976;47.332;9.404;2023-07-28T08:56:54;3.38;;;1.30;;
65375;SDS011;51976;47.332;9.404;2023-07-28T08:59:23;2.00;;;1.30;;
65375;SDS011;51976;47.332;9.404;2023-07-28T09:01:51;2.28;;;1.50;;
65375;SDS011;51976;47.332;9.404;2023-07-28T09:04:20;2.20;;;1.15;;
65375;SDS011;51976;47.332;9.404;2023-07-28T09:06:46;1.77;;;1.30;;
65375;SDS011;51976;47.332;9.404;2023-07-28T09:09:15;3.40;;;1.50;;
65375;SDS011;51976;47.332;9.404;2023-07-28T09:11:48;2.58;;;1.15;;
65375;SDS011;51976;47.332;9.404;2023-07-28T09:14:16;3.35;;;1.40;;
65375;SDS011;51976;47.332;9.404;2023-07-28T09:16:43;1.55;;;1.10;;
65375;SDS011;51976;47.332;9.404;2023-07-28T09:19:09;2.08;;;1.27;;
65375;SDS011;51976;47.332;9.404;2023-07-28T09:21:37;2.70;;;1.40;;
65375;SDS011;51976;47.332;9.404;2023-07-28T09:24:04;2.80;;;1.50;;
65375;SDS011;51976;47.332;9.404;2023-07-28T09:26:43;2.08;;;1.40;;
65375;SDS011;51976;47.332;9.404;2023-07-28T09:29:17;1.92;;;1.40;;
65375;SDS011;51976;47.332;9.404;2023-07-28T09:31:47;3.03;;;1.40;;
65375;SDS011;51976;47.332;9.404;2023-07-28T09:34:23;1.70;;;1.33;;
65375;SDS011;51976;47.332;9.404;2023-07-28T09:36:53;1.85;;;1.40;;
65375;SDS011;51976;47.332;9.404;2023-07-28T09:39:19;3.72;;;1.60;;
65375;SDS011;51976;47.332;9.404;2023-07-28T09:41:45;1.92;;;1.40;;
65375;SDS011;51976;47.332;9.404;2023-07-28T09:44:11;8.70;;;1.65;;
65375;SDS011;51976;47.332;9.404;2023-07-28T09:46:37;3.13;;;1.63;;
65375;SDS011;51976;47.332;9.404;2023-07-28T09:49:21;3.25;;;1.30;;
65375;SDS011;51976;47.332;9.404;2023-07-28T09:51:50;3.97;;;1.60;;
65375;SDS011;51976;47.332;9.404;2023-07-28T09:54:24;1.77;;;1.40;;
65375;SDS011;51976;47.332;9.404;2023-07-28T09:56:55;2.17;;;1.17;;
65375;SDS011;51976;47.332;9.404;2023-07-28T09:59:22;1.80;;;1.35;;
65375;SDS011;51976;47.332;9.404;2023-07-28T10:01:53;4.07;;;1.30;;
65375;SDS011;51976;47.332;9.404;2023-07-28T10:04:19;3.20;;;1.48;;
65375;SDS011;51976;47.332;9.404;2023-07-28T10:06:46;2.35;;;1.67;;
65375;SDS011;51976;47.332;9.404;2023-07-28T10:09:12;2.13;;;1.50;;
65375;SDS011;51976;47.332;9.404;2023-07-28T10:11:41;4.57;;;1.80;;
65375;SDS011;51976;47.332;9.404;2023-07-28T10:14:07;2.17;;;1.42;;
65375;SDS011;51976;47.332;9.404;2023-07-28T10:16:38;3.88;;;1.70;;
65375;SDS011;51976;47.332;9.404;2023-07-28T10:19:04;3.05;;;1.63;;
65375;SDS011;51976;47.332;9.404;2023-07-28T10:21:30;2.45;;;1.48;;
65375;SDS011;51976;47.332;9.404;2023-07-28T10:23:57;2.67;;;1.40;;
65375;SDS011;51976;47.332;9.404;2023-07-28T10:26:35;3.15;;;1.50;;
65375;SDS011;51976;47.332;9.404;2023-07-28T10:29:09;1.92;;;1.50;;
65375;SDS011;51976;47.332;9.404;2023-07-28T10:31:48;2.28;;;1.63;;
65375;SDS011;51976;47.332;9.404;2023-07-28T10:34:16;3.47;;;1.52;;
65375;SDS011;51976;47.332;9.404;2023-07-28T10:36:43;1.88;;;1.42;;
65375;SDS011;51976;47.332;9.404;2023-07-28T10:39:13;2.55;;;1.58;;
65375;SDS011;51976;47.332;9.404;2023-07-28T10:42:11;4.95;;;1.50;;
65375;SDS011;51976;47.332;9.404;2023-07-28T10:44:30;2.63;;;1.83;;
65375;SDS011;51976;47.332;9.404;2023-07-28T10:46:57;5.32;;;1.70;;
65375;SDS011;51976;47.332;9.404;2023-07-28T10:49:24;2.75;;;1.63;;
65375;SDS011;51976;47.332;9.404;2023-07-28T10:51:50;3.35;;;1.55;;
65375;SDS011;51976;47.332;9.404;2023-07-28T10:54:16;3.47;;;1.50;;
65375;SDS011;51976;47.332;9.404;2023-07-28T10:56:44;2.92;;;1.70;;
65375;SDS011;51976;47.332;9.404;2023-07-28T10:59:10;2.08;;;1.58;;
65375;SDS011;51976;47.332;9.404;2023-07-28T11:01:36;2.72;;;1.60;;
65375;SDS011;51976;47.332;9.404;2023-07-28T11:04:15;4.00;;;1.60;;
65375;SDS011;51976;47.332;9.404;2023-07-28T11:06:42;2.22;;;1.70;;
65375;SDS011;51976;47.332;9.404;2023-07-28T11:09:09;3.22;;;1.30;;
65375;SDS011;51976;47.332;9.404;2023-07-28T11:11:35;3.25;;;1.38;;
65375;SDS011;51976;47.332;9.404;2023-07-28T11:14:05;2.40;;;1.50;;
65375;SDS011;51976;47.332;9.404;2023-07-28T11:16:33;2.72;;;1.67;;
65375;SDS011;51976;47.332;9.404;2023-07-28T11:19:00;3.00;;;1.75;;
65375;SDS011;51976;47.332;9.404;2023-07-28T11:21:27;2.78;;;1.92;;
65375;SDS011;51976;47.332;9.404;2023-07-28T11:23:52;3.38;;;1.90;;
65375;SDS011;51976;47.332;9.404;2023-07-28T11:26:18;2.95;;;1.48;;
65375;SDS011;51976;47.332;9.404;2023-07-28T11:28:45;2.78;;;1.70;;
65375;SDS011;51976;47.332;9.404;2023-07-28T11:31:11;6.47;;;1.73;;
65375;SDS011;51976;47.332;9.404;2023-07-28T11:33:37;4.45;;;1.70;;
65375;SDS011;51976;47.332;9.404;2023-07-28T11:36:05;5.07;;;2.50;;
65375;SDS011;51976;47.332;9.404;2023-07-28T11:38:31;2.38;;;1.70;;
65375;SDS011;51976;47.332;9.404;2023-07-28T11:40:58;2.72;;;1.50;;
65375;SDS011;51976;47.332;9.404;2023-07-28T11:43:25;2.72;;;1.63;;
65375;SDS011;51976;47.332;9.404;2023-07-28T11:45:50;2.80;;;1.77;;
65375;SDS011;51976;47.332;9.404;2023-07-28T11:48:16;2.53;;;2.00;;
65375;SDS011;51976;47.332;9.404;2023-07-28T11:50:42;2.22;;;1.70;;
65375;SDS011;51976;47.332;9.404;2023-07-28T11:53:09;4.93;;;1.90;;
65375;SDS011;51976;47.332;9.404;2023-07-28T11:55:36;4.47;;;2.15;;
65375;SDS011;51976;47.332;9.404;2023-07-28T11:58:03;2.78;;;1.70;;
65375;SDS011;51976;47.332;9.404;2023-07-28T12:00:31;2.40;;;1.60;;
65375;SDS011;51976;47.332;9.404;2023-07-28T12:03:05;3.15;;;1.92;;
65375;SDS011;51976;47.332;9.404;2023-07-28T12:05:35;2.75;;;1.67;;
65375;SDS011;51976;47.332;9.404;2023-07-28T12:08:01;2.85;;;1.85;;
65375;SDS011;51976;47.332;9.404;2023-07-28T12:10:28;2.90;;;1.52;;
65375;SDS011;51976;47.332;9.404;2023-07-28T12:12:54;2.22;;;1.63;;
65375;SDS011;51976;47.332;9.404;2023-07-28T12:15:23;3.47;;;1.75;;
65375;SDS011;51976;47.332;9.404;2023-07-28T12:18:07;2.78;;;1.95;;
65375;SDS011;51976;47.332;9.404;2023-07-28T12:20:41;2.85;;;1.90;;
65375;SDS011;51976;47.332;9.404;2023-07-28T12:23:12;2.05;;;1.40;;
65375;SDS011;51976;47.332;9.404;2023-07-28T12:25:42;2.85;;;1.90;;
65375;SDS011;51976;47.332;9.404;2023-07-28T12:28:07;3.47;;;1.75;;
65375;SDS011;51976;47.332;9.404;2023-07-28T12:30:33;2.20;;;1.60;;
65375;SDS011;51976;47.332;9.404;2023-07-28T12:32:59;3.97;;;1.70;;
65375;SDS011;51976;47.332;9.404;2023-07-28T12:35:25;2.28;;;1.75;;
65375;SDS011;51976;47.332;9.404;2023-07-28T12:37:55;2.65;;;1.95;;
65375;SDS011;51976;47.332;9.404;2023-07-28T12:40:21;1.75;;;1.48;;
65375;SDS011;51976;47.332;9.404;2023-07-28T12:42:47;2.90;;;1.67;;
65375;SDS011;51976;47.332;9.404;2023-07-28T12:45:13;3.47;;;1.60;;
65375;SDS011;51976;47.332;9.404;2023-07-28T12:47:39;5.88;;;2.28;;
65375;SDS011;51976;47.332;9.404;2023-07-28T12:50:05;3.00;;;1.70;;
65375;SDS011;51976;47.332;9.404;2023-07-28T12:52:31;4.50;;;1.83;;
65375;SDS011;51976;47.332;9.404;2023-07-28T12:54:57;2.50;;;2.00;;
65375;SDS011;51976;47.332;9.404;2023-07-28T12:57:23;4.30;;;1.85;;
65375;SDS011;51976;47.332;9.404;2023-07-28T12:59:49;2.75;;;1.60;;
65375;SDS011;51976;47.332;9.404;2023-07-28T13:02:14;4.53;;;1.70;;
65375;SDS011;51976;47.332;9.404;2023-07-28T13:04:39;2.80;;;1.73;;
65375;SDS011;51976;47.332;9.404;2023-07-28T13:07:05;4.90;;;1.50;;
65375;SDS011;51976;47.332;9.404;2023-07-28T13:09:30;2.97;;;1.90;;
65375;SDS011;51976;47.332;9.404;2023-07-28T13:11:56;3.40;;;1.88;;
65375;SDS011;51976;47.332;9.404;2023-07-28T13:14:21;2.72;;;1.92;;
65375;SDS011;51976;47.332;9.404;2023-07-28T13:16:46;4.32;;;1.67;;
65375;SDS011;51976;47.332;9.404;2023-07-28T13:19:12;2.22;;;1.73;;
65375;SDS011;51976;47.332;9.404;2023-07-28T13:21:37;2.70;;;1.92;;
65375;SDS011;51976;47.332;9.404;2023-07-28T13:24:03;3.00;;;2.03;;
65375;SDS011;51976;47.332;9.404;2023-07-28T13:26:28;3.78;;;1.88;;
65375;SDS011;51976;47.332;9.404;2023-07-28T13:28:54;3.47;;;1.85;;
65375;SDS011;51976;47.332;9.404;2023-07-28T13:31:21;3.50;;;2.05;;
65375;SDS011;51976;47.332;9.404;2023-07-28T13:33:47;3.28;;;1.70;;
65375;SDS011;51976;47.332;9.404;2023-07-28T13:36:12;2.75;;;1.90;;
65375;SDS011;51976;47.332;9.404;2023-07-28T13:38:38;2.83;;;1.90;;
65375;SDS011;51976;47.332;9.404;2023-07-28T13:41:04;2.20;;;1.58;;
65375;SDS011;51976;47.332;9.404;2023-07-28T13:43:30;4.05;;;1.83;;
65375;SDS011;51976;47.332;9.404;2023-07-28T13:45:56;3.42;;;1.63;;
65375;SDS011;51976;47.332;9.404;2023-07-28T13:48:22;3.50;;;2.13;;
65375;SDS011;51976;47.332;9.404;2023-07-28T13:50:48;3.55;;;1.70;;
65375;SDS011;51976;47.332;9.404;2023-07-28T13:53:13;4.85;;;1.88;;
65375;SDS011;51976;47.332;9.404;2023-07-28T13:55:38;2.75;;;1.80;;
65375;SDS011;51976;47.332;9.404;2023-07-28T13:58:04;2.90;;;1.95;;
65375;SDS011;51976;47.332;9.404;2023-07-28T14:00:29;2.78;;;1.92;;
65375;SDS011;51976;47.332;9.404;2023-07-28T14:02:54;2.65;;;1.77;;
65375;SDS011;51976;47.332;9.404;2023-07-28T14:05:20;3.08;;;2.08;;
65375;SDS011;51976;47.332;9.404;2023-07-28T14:07:47;2.58;;;1.85;;
65375;SDS011;51976;47.332;9.404;2023-07-28T14:10:13;3.88;;;1.88;;
65375;SDS011;51976;47.332;9.404;2023-07-28T14:12:38;5.07;;;1.90;;
65375;SDS011;51976;47.332;9.404;2023-07-28T14:15:06;3.22;;;1.90;;
65375;SDS011;51976;47.332;9.404;2023-07-28T14:17:34;5.50;;;2.47;;
65375;SDS011;51976;47.332;9.404;2023-07-28T14:19:59;2.97;;;2.00;;
65375;SDS011;51976;47.332;9.404;2023-07-28T14:22:25;3.72;;;1.80;;
65375;SDS011;51976;47.332;9.404;2023-07-28T14:24:50;3.53;;;2.03;;
65375;SDS011;51976;47.332;9.404;2023-07-28T14:27:16;3.00;;;1.67;;
65375;SDS011;51976;47.332;9.404;2023-07-28T14:29:41;4.35;;;2.25;;
65375;SDS011;51976;47.332;9.404;2023-07-28T14:32:07;3.00;;;1.67;;
65375;SDS011;51976;47.332;9.404;2023-07-28T14:34:33;7.18;;;1.90;;
65375;SDS011;51976;47.332;9.404;2023-07-28T14:37:00;4.28;;;1.92;;
65375;SDS011;51976;47.332;9.404;2023-07-28T14:39:29;2.55;;;1.77;;
65375;SDS011;51976;47.332;9.404;2023-07-28T14:41:55;2.45;;;1.83;;
65375;SDS011;51976;47.332;9.404;2023-07-28T14:44:20;3.55;;;1.80;;